sensor_id;sensor_type;location;lat;lon;timestamp;pressure;altitude;pressure_sealevel;temperature;humidity
71465;BME280;59274;49.874;9.154;2023-03-04T00:01:42;101124.69;;;-1.73;100.00
71465;BME280;59274;49.874;9.154;2023-03-04T00:04:08;101128.94;;;-1.67;100.00
71465;BME280;59274;49.874;9.154;2023-03-04T00:06:33;101128.94;;;-1.67;100.00
71465;BME280;59274;49.874;9.154;2023-03-04T00:09:00;101127.34;;;-1.73;100.00
71465;BME280;59274;49.874;9.154;2023-03-04T00:11:25;101127.88;;;-1.76;100.00
71465;BME280;59274;49.874;9.154;2023-03-04T00:13:51;101130.53;;;-1.76;100.00
71465;BME280;59274;49.874;9.154;2023-03-04T00:16:17;101133.47;;;-1.83;100.00
71465;BME280;59274;49.874;9.154;2023-03-04T00:18:42;101134.03;;;-1.86;100.00
71465;BME280;59274;49.874;9.154;2023-03-04T00:21:07;101130.28;;;-1.80;100.00
71465;BME280;59274;49.874;9.154;2023-03-04T00:23:33;101130.03;;;-1.73;100.00
71465;BME280;59274;49.874;9.154;2023-03-04T00:25:58;101135.06;;;-1.67;100.00
71465;BME280;59274;49.874;9.154;2023-03-04T00:28:24;101136.41;;;-1.74;100.00
71465;BME280;59274;49.874;9.154;2023-03-04T00:30:49;101142.78;;;-1.75;100.00
71465;BME280;59274;49.874;9.154;2023-03-04T00:33:15;101138.00;;;-1.83;100.00
71465;BME280;59274;49.874;9.154;2023-03-04T00:35:40;101139.84;;;-1.84;100.00
71465;BME280;59274;49.874;9.154;2023-03-04T00:38:06;101141.72;;;-1.84;100.00
71465;BME280;59274;49.874;9.154;2023-03-04T00:40:31;101138.56;;;-1.86;100.00
71465;BME280;59274;49.874;9.154;2023-03-04T00:42:57;101138.81;;;-1.83;100.00
71465;BME280;59274;49.874;9.154;2023-03-04T00:45:22;101143.06;;;-1.77;100.00
71465;BME280;59274;49.874;9.154;2023-03-04T00:47:48;101140.94;;;-1.80;100.00
71465;BME280;59274;49.874;9.154;2023-03-04T00:50:13;101143.31;;;-1.68;100.00
71465;BME280;59274;49.874;9.154;2023-03-04T00:52:38;101141.47;;;-1.83;100.00
71465;BME280;59274;49.874;9.154;2023-03-04T00:55:04;101142.00;;;-1.71;100.00
71465;BME280;59274;49.874;9.154;2023-03-04T00:57:30;101143.31;;;-1.63;100.00
71465;BME280;59274;49.874;9.154;2023-03-04T00:59:55;101149.69;;;-1.69;100.00
71465;BME280;59274;49.874;9.154;2023-03-04T01:02:21;101136.94;;;-1.82;100.00
71465;BME280;59274;49.874;9.154;2023-03-04T01:04:46;101143.31;;;-1.83;100.00
71465;BME280;59274;49.874;9.154;2023-03-04T01:07:12;101135.88;;;-1.97;100.00
71465;BME280;59274;49.874;9.154;2023-03-04T01:09:37;101134.03;;;-2.01;100.00
71465;BME280;59274;49.874;9.154;2023-03-04T01:12:03;101132.44;;;-1.92;100.00
71465;BME280;59274;49.874;9.154;2023-03-04T01:14:28;101136.69;;;-2.06;100.00
71465;BME280;59274;49.874;9.154;2023-03-04T01:16:54;101138.28;;;-2.10;100.00
71465;BME280;59274;49.874;9.154;2023-03-04T01:19:19;101131.91;;;-2.09;100.00
71465;BME280;59274;49.874;9.154;2023-03-04T01:21:45;101136.16;;;-2.08;100.00
71465;BME280;59274;49.874;9.154;2023-03-04T01:24:11;101136.41;;;-2.10;100.00
71465;BME280;59274;49.874;9.154;2023-03-04T01:26:36;101129.22;;;-2.09;100.00
71465;BME280;59274;49.874;9.154;2023-03-04T01:29:02;101124.72;;;-2.14;100.00
71465;BME280;59274;49.874;9.154;2023-03-04T01:31:27;101130.03;;;-2.24;100.00
71465;BME280;59274;49.874;9.154;2023-03-04T01:33:53;101131.63;;;-2.23;100.00
71465;BME280;59274;49.874;9.154;2023-03-04T01:36:18;101129.50;;;-2.21;100.00
71465;BME280;59274;49.874;9.154;2023-03-04T01:38:44;101113.25;;;-2.24;100.00
71465;BME280;59274;49.874;9.154;2023-03-04T01:41:11;101118.06;;;-2.21;100.00
71465;BME280;59274;49.874;9.154;2023-03-04T01:43:37;101116.19;;;-2.21;100.00
71465;BME280;59274;49.874;9.154;2023-03-04T01:46:04;101101.56;;;-2.23;100.00
71465;BME280;59274;49.874;9.154;2023-03-04T01:48:34;101099.41;;;-2.31;100.00
71465;BME280;59274;49.874;9.154;2023-03-04T01:51:05;101104.47;;;-2.25;100.00
71465;BME280;59274;49.874;9.154;2023-03-04T01:53:35;101101.28;;;-2.17;100.00
71465;BME280;59274;49.874;9.154;2023-03-04T01:56:08;101101.56;;;-2.28;100.00
71465;BME280;59274;49.874;9.154;2023-03-04T01:58:35;101097.31;;;-2.29;100.00
71465;BME280;59274;49.874;9.154;2023-03-04T02:01:00;101100.19;;;-2.46;100.00
71465;BME280;59274;49.874;9.154;2023-03-04T02:03:26;101095.16;;;-2.43;100.00
71465;BME280;59274;49.874;9.154;2023-03-04T02:05:52;101091.69;;;-2.53;100.00
71465;BME280;59274;49.874;9.154;2023-03-04T02:08:20;101093.53;;;-2.59;100.00
71465;BME280;59274;49.874;9.154;2023-03-04T02:10:46;101087.94;;;-2.62;100.00
71465;BME280;59274;49.874;9.154;2023-03-04T02:13:13;101090.63;;;-2.57;100.00
71465;BME280;59274;49.874;9.154;2023-03-04T02:15:40;101081.31;;;-2.45;100.00
71465;BME280;59274;49.874;9.154;2023-03-04T02:18:22;101090.63;;;-2.32;100.00
71465;BME280;59274;49.874;9.154;2023-03-04T02:21:17;101083.19;;;-2.30;100.00
71465;BME280;59274;49.874;9.154;2023-03-04T02:26:35;101080.00;;;-2.02;100.00
71465;BME280;59274;49.874;9.154;2023-03-04T02:29:02;101086.38;;;-1.98;100.00
71465;BME280;59274;49.874;9.154;2023-03-04T02:31:43;101080.00;;;-2.02;100.00
71465;BME280;59274;49.874;9.154;2023-03-04T02:34:18;101078.66;;;-1.89;100.00
71465;BME280;59274;49.874;9.154;2023-03-04T02:36:46;101080.25;;;-1.88;100.00
71465;BME280;59274;49.874;9.154;2023-03-04T02:39:19;101082.63;;;-1.71;100.00
71465;BME280;59274;49.874;9.154;2023-03-04T02:41:51;101078.63;;;-1.69;100.00
71465;BME280;59274;49.874;9.154;2023-03-04T02:44:20;101070.63;;;-1.64;100.00
71465;BME280;59274;49.874;9.154;2023-03-04T02:46:46;101077.31;;;-1.71;100.00
71465;BME280;59274;49.874;9.154;2023-03-04T02:49:11;101068.53;;;-1.72;100.00
71465;BME280;59274;49.874;9.154;2023-03-04T02:51:38;101071.16;;;-1.56;100.00
71465;BME280;59274;49.874;9.154;2023-03-04T02:54:03;101071.13;;;-1.51;100.00
71465;BME280;59274;49.874;9.154;2023-03-04T02:56:29;101066.84;;;-1.47;100.00
71465;BME280;59274;49.874;9.154;2023-03-04T02:58:54;101066.31;;;-1.44;100.00
71465;BME280;59274;49.874;9.154;2023-03-04T03:01:20;101066.25;;;-1.34;100.00
71465;BME280;59274;49.874;9.154;2023-03-04T03:03:46;101061.19;;;-1.31;100.00
71465;BME280;59274;49.874;9.154;2023-03-04T03:06:11;101064.94;;;-1.32;100.00
71465;BME280;59274;49.874;9.154;2023-03-04T03:08:36;101064.63;;;-1.25;100.00
71465;BME280;59274;49.874;9.154;2023-03-04T03:11:02;101064.34;;;-1.19;100.00
71465;BME280;59274;49.874;9.154;2023-03-04T03:13:28;101063.03;;;-1.21;100.00
71465;BME280;59274;49.874;9.154;2023-03-04T03:15:53;101062.22;;;-1.16;100.00
71465;BME280;59274;49.874;9.154;2023-03-04T03:18:19;101061.09;;;-1.10;100.00
71465;BME280;59274;49.874;9.154;2023-03-04T03:20:45;101056.81;;;-1.01;100.00
71465;BME280;59274;49.874;9.154;2023-03-04T03:23:10;101062.09;;;-0.96;100.00
71465;BME280;59274;49.874;9.154;2023-03-04T03:25:36;101062.38;;;-0.93;100.00
71465;BME280;59274;49.874;9.154;2023-03-04T03:28:02;101059.94;;;-0.89;100.00
71465;BME280;59274;49.874;9.154;2023-03-04T03:30:27;101057.81;;;-0.92;100.00
71465;BME280;59274;49.874;9.154;2023-03-04T03:32:53;101059.97;;;-0.94;100.00
71465;BME280;59274;49.874;9.154;2023-03-04T03:35:18;101059.94;;;-0.89;100.00
71465;BME280;59274;49.874;9.154;2023-03-04T03:37:43;101056.50;;;-0.95;100.00
71465;BME280;59274;49.874;9.154;2023-03-04T03:40:10;101058.28;;;-0.85;100.00
71465;BME280;59274;49.874;9.154;2023-03-04T03:42:35;101057.78;;;-0.87;100.00
71465;BME280;59274;49.874;9.154;2023-03-04T03:45:01;101059.41;;;-0.91;100.00
71465;BME280;59274;49.874;9.154;2023-03-04T03:47:26;101060.19;;;-0.86;100.00
71465;BME280;59274;49.874;9.154;2023-03-04T03:49:51;101050.28;;;-0.80;100.00
71465;BME280;59274;49.874;9.154;2023-03-04T03:52:17;101058.22;;;-0.70;100.00
71465;BME280;59274;49.874;9.154;2023-03-04T03:54:42;101057.41;;;-0.65;100.00
71465;BME280;59274;49.874;9.154;2023-03-04T03:57:08;101057.13;;;-0.69;100.00
71465;BME280;59274;49.874;9.154;2023-03-04T03:59:33;101059.53;;;-0.67;100.00
71465;BME280;59274;49.874;9.154;2023-03-04T04:01:58;101054.69;;;-0.60;100.00
71465;BME280;59274;49.874;9.154;2023-03-04T04:04:24;101055.72;;;-0.56;100.00
71465;BME280;59274;49.874;9.154;2023-03-04T04:06:50;101051.75;;;-0.59;100.00
71465;BME280;59274;49.874;9.154;2023-03-04T04:09:15;101054.09;;;-0.52;100.00
71465;BME280;59274;49.874;9.154;2023-03-04T04:11:41;101052.56;;;-0.58;100.00
71465;BME280;59274;49.874;9.154;2023-03-04T04:14:09;101049.09;;;-0.59;100.00
71465;BME280;59274;49.874;9.154;2023-03-04T04:16:35;101047.91;;;-0.48;100.00
71465;BME280;59274;49.874;9.154;2023-03-04T04:19:00;101044.25;;;-0.57;100.00
71465;BME280;59274;49.874;9.154;2023-03-04T04:21:26;101051.28;;;-0.71;100.00
71465;BME280;59274;49.874;9.154;2023-03-04T04:23:51;101048.50;;;-0.56;100.00
71465;BME280;59274;49.874;9.154;2023-03-04T04:26:17;101048.50;;;-0.51;100.00
71465;BME280;59274;49.874;9.154;2023-03-04T04:28:42;101050.81;;;-0.39;100.00
71465;BME280;59274;49.874;9.154;2023-03-04T04:31:08;101046.84;;;-0.47;100.00
71465;BME280;59274;49.874;9.154;2023-03-04T04:33:34;101045.72;;;-0.41;100.00
71465;BME280;59274;49.874;9.154;2023-03-04T04:36:00;101043.50;;;-0.28;100.00
71465;BME280;59274;49.874;9.154;2023-03-04T04:38:26;101040.13;;;-0.39;100.00
71465;BME280;59274;49.874;9.154;2023-03-04T04:40:51;101039.00;;;-0.33;100.00
71465;BME280;59274;49.874;9.154;2023-03-04T04:43:17;101044.06;;;-0.31;100.00
71465;BME280;59274;49.874;9.154;2023-03-04T04:45:42;101043.81;;;-0.35;100.00
71465;BME280;59274;49.874;9.154;2023-03-04T04:48:08;101039.00;;;-0.33;100.00
71465;BME280;59274;49.874;9.154;2023-03-04T04:50:33;101040.31;;;-0.30;100.00
71465;BME280;59274;49.874;9.154;2023-03-04T04:52:59;101041.94;;;-0.29;100.00
71465;BME280;59274;49.874;9.154;2023-03-04T04:55:24;101034.47;;;-0.32;100.00
71465;BME280;59274;49.874;9.154;2023-03-04T04:57:50;101041.94;;;-0.34;100.00
71465;BME280;59274;49.874;9.154;2023-03-04T05:00:16;101043.22;;;-0.27;100.00
71465;BME280;59274;49.874;9.154;2023-03-04T05:02:43;101040.41;;;-0.12;100.00
71465;BME280;59274;49.874;9.154;2023-03-04T05:05:08;101041.69;;;-0.04;100.00
71465;BME280;59274;49.874;9.154;2023-03-04T05:07:34;101044.41;;;-0.09;100.00
71465;BME280;59274;49.874;9.154;2023-03-04T05:09:59;101030.50;;;-0.06;100.00
71465;BME280;59274;49.874;9.154;2023-03-04T05:12:25;101049.16;;;-0.01;100.00
71465;BME280;59274;49.874;9.154;2023-03-04T05:14:50;101040.84;;;0.00;100.00
71465;BME280;59274;49.874;9.154;2023-03-04T05:17:16;101039.22;;;0.05;100.00
71465;BME280;59274;49.874;9.154;2023-03-04T05:19:41;101041.34;;;0.03;100.00
71465;BME280;59274;49.874;9.154;2023-03-04T05:22:07;101038.81;;;-0.13;100.00
71465;BME280;59274;49.874;9.154;2023-03-04T05:24:32;101035.88;;;-0.11;100.00
71465;BME280;59274;49.874;9.154;2023-03-04T05:26:59;101035.22;;;0.02;100.00
71465;BME280;59274;49.874;9.154;2023-03-04T05:29:25;101033.16;;;-0.06;100.00
71465;BME280;59274;49.874;9.154;2023-03-04T05:31:51;101040.94;;;-0.10;100.00
71465;BME280;59274;49.874;9.154;2023-03-04T05:34:16;101031.66;;;-0.17;100.00
71465;BME280;59274;49.874;9.154;2023-03-04T05:36:42;101034.22;;;-0.07;100.00
71465;BME280;59274;49.874;9.154;2023-03-04T05:39:07;101036.91;;;-0.07;100.00
71465;BME280;59274;49.874;9.154;2023-03-04T05:41:32;101031.09;;;-0.14;100.00
71465;BME280;59274;49.874;9.154;2023-03-04T05:43:58;101029.47;;;-0.10;100.00
71465;BME280;59274;49.874;9.154;2023-03-04T05:46:23;101032.09;;;-0.05;100.00
71465;BME280;59274;49.874;9.154;2023-03-04T05:48:51;101039.69;;;-0.17;100.00
71465;BME280;59274;49.874;9.154;2023-03-04T05:51:17;101035.69;;;-0.20;100.00
71465;BME280;59274;49.874;9.154;2023-03-04T05:53:43;101033.81;;;-0.19;100.00
71465;BME280;59274;49.874;9.154;2023-03-04T05:56:14;101037.41;;;-0.05;100.00
71465;BME280;59274;49.874;9.154;2023-03-04T05:58:40;101037.09;;;0.02;100.00
71465;BME280;59274;49.874;9.154;2023-03-04T06:01:05;101035.81;;;-0.01;100.00
71465;BME280;59274;49.874;9.154;2023-03-04T06:03:31;101040.06;;;0.00;100.00
71465;BME280;59274;49.874;9.154;2023-03-04T06:05:59;101039.44;;;0.08;100.00
71465;BME280;59274;49.874;9.154;2023-03-04T06:08:25;101046.97;;;0.01;100.00
71465;BME280;59274;49.874;9.154;2023-03-04T06:10:53;101050.88;;;-0.15;100.00
71465;BME280;59274;49.874;9.154;2023-03-04T06:13:19;101053.81;;;-0.17;100.00
71465;BME280;59274;49.874;9.154;2023-03-04T06:15:45;101055.75;;;0.07;100.00
71465;BME280;59274;49.874;9.154;2023-03-04T06:18:11;101051.16;;;0.12;100.00
71465;BME280;59274;49.874;9.154;2023-03-04T06:20:36;101058.22;;;-0.02;100.00
71465;BME280;59274;49.874;9.154;2023-03-04T06:23:03;101057.56;;;0.11;100.00
71465;BME280;59274;49.874;9.154;2023-03-04T06:25:28;101052.13;;;0.21;100.00
71465;BME280;59274;49.874;9.154;2023-03-04T06:27:54;101059.03;;;-0.02;100.00
71465;BME280;59274;49.874;9.154;2023-03-04T06:30:20;101060.69;;;-0.11;100.00
71465;BME280;59274;49.874;9.154;2023-03-04T06:32:45;101070.91;;;0.11;100.00
71465;BME280;59274;49.874;9.154;2023-03-04T06:35:12;101067.69;;;0.14;100.00
71465;BME280;59274;49.874;9.154;2023-03-04T06:37:39;101062.81;;;0.21;100.00
71465;BME280;59274;49.874;9.154;2023-03-04T06:40:05;101076.06;;;0.03;100.00
71465;BME280;59274;49.874;9.154;2023-03-04T06:42:33;101086.94;;;0.11;100.00
71465;BME280;59274;49.874;9.154;2023-03-04T06:44:58;101084.69;;;0.23;100.00
71465;BME280;59274;49.874;9.154;2023-03-04T06:47:24;101076.06;;;0.03;100.00
71465;BME280;59274;49.874;9.154;2023-03-04T06:49:49;101083.06;;;-0.02;100.00
71465;BME280;59274;49.874;9.154;2023-03-04T06:52:15;101089.47;;;0.26;100.00
71465;BME280;59274;49.874;9.154;2023-03-04T06:54:40;101085.88;;;0.36;100.00
71465;BME280;59274;49.874;9.154;2023-03-04T06:57:06;101090.09;;;0.18;100.00
71465;BME280;59274;49.874;9.154;2023-03-04T06:59:31;101080.53;;;0.36;100.00
71465;BME280;59274;49.874;9.154;2023-03-04T07:01:57;101097.63;;;0.40;100.00
71465;BME280;59274;49.874;9.154;2023-03-04T07:04:22;101089.81;;;0.44;100.00
71465;BME280;59274;49.874;9.154;2023-03-04T07:06:49;101087.19;;;0.38;100.00
71465;BME280;59274;49.874;9.154;2023-03-04T07:09:15;101087.03;;;0.54;100.00
71465;BME280;59274;49.874;9.154;2023-03-04T07:11:40;101091.19;;;0.65;100.00
71465;BME280;59274;49.874;9.154;2023-03-04T07:14:06;101096.34;;;0.32;100.00
71465;BME280;59274;49.874;9.154;2023-03-04T07:16:31;101091.88;;;-0.01;100.00
71465;BME280;59274;49.874;9.154;2023-03-04T07:18:57;101102.03;;;0.26;100.00
71465;BME280;59274;49.874;9.154;2023-03-04T07:21:22;101095.69;;;0.46;100.00
71465;BME280;59274;49.874;9.154;2023-03-04T07:23:48;101100.63;;;0.57;100.00
71465;BME280;59274;49.874;9.154;2023-03-04T07:26:14;101093.19;;;0.54;100.00
71465;BME280;59274;49.874;9.154;2023-03-04T07:28:39;101088.72;;;0.50;100.00
71465;BME280;59274;49.874;9.154;2023-03-04T07:31:32;101099.09;;;0.75;100.00
71465;BME280;59274;49.874;9.154;2023-03-04T07:34:04;101096.09;;;0.82;100.00
71465;BME280;59274;49.874;9.154;2023-03-04T07:36:34;101095.00;;;0.83;100.00
71465;BME280;59274;49.874;9.154;2023-03-04T07:39:00;101106.94;;;0.90;100.00
71465;BME280;59274;49.874;9.154;2023-03-04T07:41:26;101102.13;;;0.92;100.00
71465;BME280;59274;49.874;9.154;2023-03-04T07:43:52;101093.44;;;1.00;100.00
71465;BME280;59274;49.874;9.154;2023-03-04T07:46:19;101103.81;;;0.83;100.00
71465;BME280;59274;49.874;9.154;2023-03-04T07:48:45;101108.34;;;1.06;100.00
71465;BME280;59274;49.874;9.154;2023-03-04T07:51:13;101103.72;;;1.12;100.00
71465;BME280;59274;49.874;9.154;2023-03-04T07:53:41;101096.34;;;1.23;100.00
71465;BME280;59274;49.874;9.154;2023-03-04T07:56:11;101110.69;;;1.32;100.00
71465;BME280;59274;49.874;9.154;2023-03-04T07:58:37;101115.47;;;1.35;100.00
71465;BME280;59274;49.874;9.154;2023-03-04T08:01:08;101118.78;;;1.27;100.00
71465;BME280;59274;49.874;9.154;2023-03-04T08:03:34;101113.22;;;1.23;100.00
71465;BME280;59274;49.874;9.154;2023-03-04T08:05:59;101111.78;;;1.31;100.00
71465;BME280;59274;49.874;9.154;2023-03-04T08:08:28;101116.13;;;1.45;100.00
71465;BME280;59274;49.874;9.154;2023-03-04T08:10:53;101116.97;;;1.60;100.00
71465;BME280;59274;49.874;9.154;2023-03-04T08:13:18;101116.47;;;1.57;100.00
71465;BME280;59274;49.874;9.154;2023-03-04T08:15:44;101119.50;;;1.51;100.00
71465;BME280;59274;49.874;9.154;2023-03-04T08:18:09;101123.13;;;1.60;100.00
71465;BME280;59274;49.874;9.154;2023-03-04T08:20:35;101123.56;;;1.67;100.00
71465;BME280;59274;49.874;9.154;2023-03-04T08:23:00;101119.22;;;1.71;100.00
71465;BME280;59274;49.874;9.154;2023-03-04T08:25:25;101118.63;;;1.37;100.00
71465;BME280;59274;49.874;9.154;2023-03-04T08:27:51;101124.50;;;1.57;100.00
71465;BME280;59274;49.874;9.154;2023-03-04T08:30:16;101127.31;;;1.66;99.85
71465;BME280;59274;49.874;9.154;2023-03-04T08:32:42;101127.56;;;1.70;99.57
71465;BME280;59274;49.874;9.154;2023-03-04T08:35:07;101126.25;;;1.48;100.00
71465;BME280;59274;49.874;9.154;2023-03-04T08:37:33;101127.06;;;1.49;100.00
71465;BME280;59274;49.874;9.154;2023-03-04T08:39:58;101127.84;;;1.68;100.00
71465;BME280;59274;49.874;9.154;2023-03-04T08:42:24;101127.16;;;1.95;99.88
71465;BME280;59274;49.874;9.154;2023-03-04T08:44:51;101127.47;;;1.75;97.82
71465;BME280;59274;49.874;9.154;2023-03-04T08:47:16;101137.59;;;1.59;99.40
71465;BME280;59274;49.874;9.154;2023-03-04T08:49:42;101130.94;;;1.75;99.91
71465;BME280;59274;49.874;9.154;2023-03-04T08:52:07;101133.72;;;2.03;98.37
71465;BME280;59274;49.874;9.154;2023-03-04T08:54:33;101134.22;;;2.05;98.38
71465;BME280;59274;49.874;9.154;2023-03-04T08:56:58;101130.53;;;2.01;98.02
71465;BME280;59274;49.874;9.154;2023-03-04T08:59:24;101141.19;;;2.06;98.45
71465;BME280;59274;49.874;9.154;2023-03-04T09:01:49;101138.22;;;2.21;98.80
71465;BME280;59274;49.874;9.154;2023-03-04T09:04:15;101141.38;;;2.09;98.03
71465;BME280;59274;49.874;9.154;2023-03-04T09:06:43;101141.41;;;1.90;98.54
71465;BME280;59274;49.874;9.154;2023-03-04T09:09:09;101140.84;;;1.75;99.01
71465;BME280;59274;49.874;9.154;2023-03-04T09:11:34;101138.69;;;1.77;99.95
71465;BME280;59274;49.874;9.154;2023-03-04T09:14:00;101135.50;;;2.07;99.59
71465;BME280;59274;49.874;9.154;2023-03-04T09:16:25;101137.56;;;2.29;98.95
71465;BME280;59274;49.874;9.154;2023-03-04T09:18:51;101132.34;;;2.51;98.02
71465;BME280;59274;49.874;9.154;2023-03-04T09:21:16;101127.09;;;2.60;96.65
71465;BME280;59274;49.874;9.154;2023-03-04T09:23:43;101137.44;;;2.66;95.12
71465;BME280;59274;49.874;9.154;2023-03-04T09:26:18;101128.41;;;2.62;95.13
71465;BME280;59274;49.874;9.154;2023-03-04T09:28:45;101132.06;;;2.80;93.86
71465;BME280;59274;49.874;9.154;2023-03-04T09:31:12;101129.19;;;3.04;93.54
71465;BME280;59274;49.874;9.154;2023-03-04T09:33:37;101126.09;;;3.24;93.53
71465;BME280;59274;49.874;9.154;2023-03-04T09:36:06;101128.28;;;3.22;93.73
71465;BME280;59274;49.874;9.154;2023-03-04T09:38:32;101132.22;;;3.38;92.17
71465;BME280;59274;49.874;9.154;2023-03-04T09:40:59;101131.16;;;3.26;91.00
71465;BME280;59274;49.874;9.154;2023-03-04T09:43:29;101124.72;;;3.49;90.89
71465;BME280;59274;49.874;9.154;2023-03-04T09:45:58;101120.53;;;3.57;90.85
71465;BME280;59274;49.874;9.154;2023-03-04T09:48:27;101122.69;;;3.68;89.72
71465;BME280;59274;49.874;9.154;2023-03-04T09:51:22;101124.84;;;3.44;88.93
71465;BME280;59274;49.874;9.154;2023-03-04T09:54:06;101123.59;;;3.64;89.09
71465;BME280;59274;49.874;9.154;2023-03-04T09:56:36;101117.88;;;3.79;89.17
71465;BME280;59274;49.874;9.154;2023-03-04T09:59:16;101112.75;;;3.91;89.12
71465;BME280;59274;49.874;9.154;2023-03-04T10:01:51;101118.75;;;3.88;88.37
71465;BME280;59274;49.874;9.154;2023-03-04T10:04:29;101114.94;;;3.67;88.36
71465;BME280;59274;49.874;9.154;2023-03-04T10:06:56;101113.56;;;3.55;89.33
71465;BME280;59274;49.874;9.154;2023-03-04T10:09:27;101108.13;;;3.83;89.09
71465;BME280;59274;49.874;9.154;2023-03-04T10:12:05;101108.50;;;3.90;87.86
71465;BME280;59274;49.874;9.154;2023-03-04T10:14:43;101105.03;;;3.98;86.77
71465;BME280;59274;49.874;9.154;2023-03-04T10:20:04;101103.53;;;4.37;nan
71465;BME280;59274;49.874;9.154;2023-03-04T10:22:45;101106.13;;;4.19;85.77
71465;BME280;59274;49.874;9.154;2023-03-04T10:25:29;101101.63;;;4.06;86.51
71465;BME280;59274;49.874;9.154;2023-03-04T10:27:58;101101.75;;;4.01;86.21
71465;BME280;59274;49.874;9.154;2023-03-04T10:33:19;101102.16;;;4.17;86.64
71465;BME280;59274;49.874;9.154;2023-03-04T10:36:35;101105.03;;;4.51;85.98
71465;BME280;59274;49.874;9.154;2023-03-04T10:38:35;101097.75;;;4.52;84.80
71465;BME280;59274;49.874;9.154;2023-03-04T10:41:11;101095.47;;;4.67;84.40
71465;BME280;59274;49.874;9.154;2023-03-04T10:43:38;101099.13;;;4.80;84.92
71465;BME280;59274;49.874;9.154;2023-03-04T10:46:03;101096.59;;;4.84;83.22
71465;BME280;59274;49.874;9.154;2023-03-04T10:48:30;101091.72;;;4.94;80.60
71465;BME280;59274;49.874;9.154;2023-03-04T10:51:11;101100.81;;;5.16;80.36
71465;BME280;59274;49.874;9.154;2023-03-04T10:53:41;101093.97;;;5.01;78.30
71465;BME280;59274;49.874;9.154;2023-03-04T10:56:39;101088.91;;;5.08;77.36
71465;BME280;59274;49.874;9.154;2023-03-04T11:01:58;101080.31;;;4.97;77.50
71465;BME280;59274;49.874;9.154;2023-03-04T11:04:26;101084.97;;;5.14;76.75
71465;BME280;59274;49.874;9.154;2023-03-04T11:06:52;101086.22;;;5.08;75.06
71465;BME280;59274;49.874;9.154;2023-03-04T11:09:24;101073.84;;;4.98;75.24
71465;BME280;59274;49.874;9.154;2023-03-04T11:11:51;101075.72;;;4.98;75.24
71465;BME280;59274;49.874;9.154;2023-03-04T11:14:33;101078.31;;;5.03;74.67
71465;BME280;59274;49.874;9.154;2023-03-04T11:17:02;101074.75;;;4.85;76.06
71465;BME280;59274;49.874;9.154;2023-03-04T11:19:30;101069.09;;;4.95;76.31
71465;BME280;59274;49.874;9.154;2023-03-04T11:21:59;101056.91;;;4.89;77.15
71465;BME280;59274;49.874;9.154;2023-03-04T11:24:27;101071.75;;;4.87;76.51
71465;BME280;59274;49.874;9.154;2023-03-04T11:27:35;101060.22;;;4.95;76.34
71465;BME280;59274;49.874;9.154;2023-03-04T11:32:50;101053.75;;;4.96;76.54
71465;BME280;59274;49.874;9.154;2023-03-04T11:35:24;101053.34;;;4.71;76.44
71465;BME280;59274;49.874;9.154;2023-03-04T11:38:03;101049.44;;;4.86;75.82
71465;BME280;59274;49.874;9.154;2023-03-04T11:40:37;101042.78;;;4.84;76.47
71465;BME280;59274;49.874;9.154;2023-03-04T11:54:07;101037.38;;;4.66;75.94
71465;BME280;59274;49.874;9.154;2023-03-04T11:56:51;101032.31;;;4.73;75.51
71465;BME280;59274;49.874;9.154;2023-03-04T12:02:21;101026.16;;;4.90;75.24
71465;BME280;59274;49.874;9.154;2023-03-04T12:10:47;101017.63;;;4.88;75.19
71465;BME280;59274;49.874;9.154;2023-03-04T12:29:23;101021.19;;;4.58;76.50
71465;BME280;59274;49.874;9.154;2023-03-04T12:48:59;100999.72;;;4.75;75.95
71465;BME280;59274;49.874;9.154;2023-03-04T12:54:10;100998.72;;;4.62;76.37
71465;BME280;59274;49.874;9.154;2023-03-04T12:56:43;100992.75;;;4.74;76.31
71465;BME280;59274;49.874;9.154;2023-03-04T12:59:16;100992.13;;;4.77;75.97
71465;BME280;59274;49.874;9.154;2023-03-04T13:01:55;100995.78;;;4.81;76.18
71465;BME280;59274;49.874;9.154;2023-03-04T13:12:55;100966.00;;;5.46;74.30
71465;BME280;59274;49.874;9.154;2023-03-04T13:17:49;100957.44;;;5.53;72.93
71465;BME280;59274;49.874;9.154;2023-03-04T13:20:37;100964.03;;;5.73;72.30
71465;BME280;59274;49.874;9.154;2023-03-04T13:25:39;100949.94;;;5.67;72.90
71465;BME280;59274;49.874;9.154;2023-03-04T13:43:36;100944.97;;;5.86;72.30
71465;BME280;59274;49.874;9.154;2023-03-04T13:51:18;100925.78;;;5.97;70.40
71465;BME280;59274;49.874;9.154;2023-03-04T13:56:40;100914.50;;;6.03;70.79
71465;BME280;59274;49.874;9.154;2023-03-04T14:01:35;100904.72;;;6.19;69.90
71465;BME280;59274;49.874;9.154;2023-03-04T14:04:55;100909.53;;;6.35;69.03
71465;BME280;59274;49.874;9.154;2023-03-04T14:06:59;100904.41;;;6.21;69.43
71465;BME280;59274;49.874;9.154;2023-03-04T14:09:30;100896.44;;;5.95;69.60
71465;BME280;59274;49.874;9.154;2023-03-04T14:11:58;100886.28;;;6.01;70.08
71465;BME280;59274;49.874;9.154;2023-03-04T14:14:29;100893.72;;;6.04;70.94
71465;BME280;59274;49.874;9.154;2023-03-04T14:16:59;100899.28;;;5.99;70.54
71465;BME280;59274;49.874;9.154;2023-03-04T14:19:31;100896.13;;;5.97;71.18
71465;BME280;59274;49.874;9.154;2023-03-04T14:22:00;100898.47;;;5.98;71.09
71465;BME280;59274;49.874;9.154;2023-03-04T14:24:26;100898.22;;;5.82;71.19
71465;BME280;59274;49.874;9.154;2023-03-04T14:27:12;100893.75;;;5.86;71.11
71465;BME280;59274;49.874;9.154;2023-03-04T14:29:38;100889.66;;;5.80;71.71
71465;BME280;59274;49.874;9.154;2023-03-04T14:32:04;100890.81;;;5.62;72.31
71465;BME280;59274;49.874;9.154;2023-03-04T14:34:33;100888.50;;;5.52;73.03
71465;BME280;59274;49.874;9.154;2023-03-04T14:37:00;100884.66;;;5.62;73.10
71465;BME280;59274;49.874;9.154;2023-03-04T14:39:29;100889.41;;;5.65;72.53
71465;BME280;59274;49.874;9.154;2023-03-04T14:42:00;100889.06;;;5.75;73.11